Data for 02/02/2010

Time Sea-Level Adjusted Pressure Absolute Pressure Temperature Relative Humidity Dew Point   
(mb) (inHg) (mb) (inHg) (C) (F) (%) (C) (F)
00:05 1014 29.94 843 24.89 -4.9 23.3 70 -9.5 14.8
00:10 1014 29.94 843 24.89 -5.1 22.8 70 -9.8 14.4
00:15 1014 29.94 843 24.89 -5.2 22.7 70 -9.8 14.4
00:20 1014 29.94 843 24.89 -4.9 23.1 68 -9.9 14.2
00:25 1014 29.94 843 24.89 -4.8 23.3 68 -9.9 14.2
00:30 1014 29.94 843 24.89 -4.6 23.6 67 -9.8 14.3
00:35 1014 29.94 843 24.89 -4.4 24.1 66 -9.8 14.4
00:40 1014 29.94 843 24.89 -4.4 24 66 -9.8 14.3
00:45 1014 29.94 843 24.89 -4.6 23.7 67 -9.7 14.5
00:50 1014 29.94 843 24.89 -4.4 24 67 -9.7 14.5
00:55 1014 29.94 843 24.89 -4.4 24.1 66 -9.8 14.4
01:00 1014 29.94 843 24.89 -4.1 24.6 65 -9.7 14.6
01:05 1014 29.94 843 24.89 -4 24.8 65 -9.7 14.5
01:10 1014 29.94 843 24.89 -4 24.8 65 -9.6 14.7
01:15 1014 29.94 843 24.89 -4.1 24.7 66 -9.5 14.9
01:20 1014 29.94 843 24.89 -4.1 24.7 65 -9.7 14.6
01:25 1014 29.94 843 24.89 -4.1 24.7 65 -9.7 14.6
01:30 1014 29.94 843 24.89 -4.1 24.6 65 -9.8 14.4
01:35 1014 29.94 843 24.89 -4.1 24.6 65 -9.8 14.4
01:40 1014 29.94 843 24.89 -4.2 24.5 65 -9.8 14.3
01:45 1014 29.94 843 24.89 -4.3 24.2 66 -9.8 14.4
01:50 1014 29.94 843 24.89 -4.4 24 65 -10.1 13.9
01:55 1014 29.94 843 24.89 -4.3 24.3 65 -10 14
02:00 1014 29.94 843 24.89 -4.2 24.5 64 -9.9 14.1
02:05 1014 29.94 843 24.89 -4.1 24.5 64 -9.9 14.2
02:10 1014 29.94 843 24.89 -4.1 24.5 64 -9.9 14.1
02:15 1014 29.94 843 24.89 -4.1 24.7 65 -9.8 14.4
02:20 1014 29.94 843 24.89 -4 24.8 64 -9.9 14.3
02:25 1014 29.94 843 24.89 -4 24.7 64 -10 14.1
02:30 1014 29.94 843 24.89 -4.1 24.5 64 -9.9 14.2
02:35 1014 29.94 843 24.89 -4.2 24.4 64 -10 14
02:40 1014 29.94 843 24.89 -4.1 24.5 64 -9.9 14.2
02:45 1014 29.94 843 24.89 -4.2 24.5 64 -10 14.1
02:50 1014 29.94 843 24.89 -4.2 24.4 65 -9.9 14.1
02:55 1014 29.94 843 24.89 -4.5 23.8 66 -9.9 14.1
03:00 1014 29.94 843 24.89 -4.8 23.4 66 -10.1 13.8
03:05 1014 29.94 843 24.89 -4.8 23.4 67 -10.1 13.9
03:10 1014 29.94 843 24.89 -4.6 23.7 66 -10.1 13.9
03:15 1014 29.94 843 24.89 -4.6 23.7 66 -10.1 13.8
03:20 1014 29.94 843 24.89 -4.6 23.7 65 -10.2 13.7
03:25 1014 29.94 843 24.89 -4.5 24 65 -10.1 13.8
03:30 1014 29.94 843 24.89 -4.4 24.1 64 -10.1 13.8
03:35 1014 29.94 843 24.89 -4.2 24.4 63 -10.3 13.5
03:40 1014 29.94 843 24.89 -4.2 24.4 64 -10 13.9
03:45 1013 29.91 843 24.89 -4.4 24 65 -10 13.9
03:50 1013 29.91 843 24.89 -4.5 24 66 -10 14
03:55 1013 29.91 843 24.89 -4.3 24.2 65 -10 14
04:00 1013 29.91 843 24.89 -4.4 24.1 66 -9.8 14.4
04:05 1013 29.91 843 24.89 -4.4 24.1 66 -9.8 14.3
04:10 1013 29.91 843 24.89 -4.4 24.2 66 -9.8 14.4
04:15 1013 29.91 843 24.89 -4.4 24.1 66 -9.8 14.4
04:20 1013 29.91 843 24.89 -4.5 23.8 67 -9.7 14.5
04:25 1013 29.91 843 24.89 -4.5 23.9 66 -9.9 14.2
04:30 1013 29.91 843 24.89 -4.5 24 66 -9.8 14.3
04:35 1013 29.91 843 24.89 -4.6 23.7 67 -9.9 14.1
04:40 1013 29.91 843 24.89 -4.9 23.2 68 -10 14
04:45 1013 29.91 843 24.89 -5 23 68 -10 14
04:50 1013 29.91 843 24.89 -5 23 68 -10 14
04:55 1013 29.91 843 24.89 -5.2 22.7 69 -10 14.1
05:00 1013 29.91 842 24.86 -4.9 23.1 67 -10.2 13.6
05:05 1013 29.91 842 24.86 -4.6 23.8 65 -10.1 13.8
05:10 1013 29.91 842 24.86 -4.2 24.4 64 -10 14.1
05:15 1013 29.91 842 24.86 -4.2 24.4 65 -9.9 14.3
05:20 1013 29.91 842 24.86 -4.4 24.1 66 -9.8 14.3
05:25 1013 29.91 842 24.86 -4.6 23.7 68 -9.7 14.5
05:30 1013 29.91 842 24.86 -4.8 23.4 69 -9.7 14.6
05:35 1013 29.91 842 24.86 -4.8 23.3 68 -9.8 14.3
05:40 1013 29.91 842 24.86 -4.7 23.5 67 -9.9 14.3
05:45 1013 29.91 842 24.86 -4.6 23.7 66 -9.9 14.1
05:50 1013 29.91 842 24.86 -4.5 24 66 -9.8 14.3
05:55 1013 29.91 842 24.86 -4.5 23.8 67 -9.8 14.4
06:00 1013 29.91 842 24.86 -4.8 23.4 68 -9.8 14.3
06:05 1013 29.91 842 24.86 -5.1 22.7 69 -9.9 14.2
06:10 1013 29.91 842 24.86 -5.2 22.6 68 -10.2 13.7
06:15 1013 29.91 842 24.86 -4.6 23.6 65 -10.2 13.6
06:20 1013 29.91 842 24.86 -4.3 24.3 65 -10 14
06:25 1013 29.91 842 24.86 -4.1 24.6 64 -10 14
06:30 1013 29.91 842 24.86 -3.9 24.9 63 -9.9 14.1
06:35 1013 29.91 842 24.86 -3.9 24.9 64 -9.8 14.4
06:40 1013 29.91 842 24.86 -4.1 24.7 65 -9.7 14.5
06:45 1013 29.91 842 24.86 -4.1 24.6 65 -9.7 14.5
06:50 1013 29.91 842 24.86 -4.3 24.3 66 -9.6 14.7
06:55 1013 29.91 842 24.86 -4.3 24.2 67 -9.6 14.8
07:00 1013 29.91 842 24.86 -4.4 24.1 66 -9.8 14.4
07:05 1013 29.91 842 24.86 -4 24.8 66 -9.4 15.1
07:10 1013 29.91 842 24.86 -4 24.8 68 -9.1 15.7
07:15 1013 29.91 842 24.86 -4.3 24.2 68 -9.4 15.1
07:20 1013 29.91 842 24.86 -4.4 24.1 69 -9.3 15.3
07:25 1013 29.91 842 24.86 -4.7 23.6 70 -9.3 15.3
07:30 1013 29.91 842 24.86 -4.7 23.6 70 -9.4 15.1
07:35 1013 29.91 842 24.86 -4.7 23.6 71 -9.2 15.4
07:40 1013 29.91 842 24.86 -4.7 23.6 70 -9.4 15.2
07:45 1013 29.91 842 24.86 -4.6 23.8 69 -9.4 15.1
07:50 1013 29.91 842 24.86 -4.3 24.3 68 -9.4 15.1
07:55 1013 29.91 842 24.86 -4.6 23.8 69 -9.4 15
08:00 1013 29.91 842 24.86 -4.8 23.3 69 -9.7 14.5
08:05 1013 29.91 842 24.86 -4.7 23.6 70 -9.4 15
08:10 1013 29.91 842 24.86 -4.4 24 68 -9.4 15.1
08:15 1013 29.91 842 24.86 -4.5 23.9 68 -9.5 15
08:20 1013 29.91 842 24.86 -4.4 24.1 67 -9.7 14.6
08:25 1013 29.91 842 24.86 -4.3 24.4 66 -9.7 14.6
08:30 1013 29.91 842 24.86 -4.3 24.3 67 -9.5 15
08:35 1013 29.91 843 24.89 -4.3 24.3 67 -9.5 14.9
08:40 1013 29.91 843 24.89 -4 24.7 67 -9.3 15.2
08:45 1013 29.91 843 24.89 -3.6 25.6 65 -9.1 15.6
08:50 1013 29.91 842 24.86 -3.6 25.6 68 -8.7 16.3
08:55 1013 29.91 843 24.89 -3.8 25.2 67 -9 15.7
09:00 1013 29.91 843 24.89 -3.5 25.6 67 -8.8 16.1
09:05 1013 29.91 843 24.89 -3.5 25.7 67 -8.8 16.2
09:10 1013 29.91 842 24.86 -3.5 25.7 67 -8.7 16.3
09:15 1013 29.91 842 24.86 -3.5 25.7 66 -8.9 15.9
09:20 1013 29.91 843 24.89 -3.3 26 66 -8.8 16.2
09:25 1013 29.91 842 24.86 -3.1 26.4 65 -8.8 16.2
09:30 1013 29.91 842 24.86 -2.8 26.9 63 -9 15.9
09:35 1013 29.91 843 24.89 -2.8 27 64 -8.7 16.3
09:40 1013 29.91 842 24.86 -2.6 27.4 62 -8.8 16.2
09:45 1013 29.91 842 24.86 -2.3 27.8 62 -8.7 16.4
09:50 1013 29.91 842 24.86 -2.1 28.3 60 -8.8 16.2
09:55 1013 29.91 842 24.86 -1.7 29 56 -9.2 15.4
10:00 1013 29.91 842 24.86 -1.1 30 57 -8.7 16.4
10:05 1013 29.91 842 24.86 -1 30.3 57 -8.5 16.6
10:10 1013 29.91 842 24.86 -0.6 31 54 -8.7 16.4
10:15 1013 29.91 842 24.86 -1 30.3 54 -9.2 15.5
10:20 1013 29.91 842 24.86 -1.3 29.7 58 -8.6 16.6
10:25 1013 29.91 842 24.86 -1 30.2 54 -9.1 15.6
10:30 1013 29.91 842 24.86 -0.6 31 54 -8.8 16.1
10:35 1013 29.91 842 24.86 -0.1 31.8 55 -8.1 17.4
10:40 1013 29.91 842 24.86 0.6 33.1 51 -8.4 16.9
10:45 1013 29.91 842 24.86 1.4 34.5 50 -8 17.7
10:50 1013 29.91 842 24.86 1.2 34.1 50 -8 17.6
10:55 1013 29.91 842 24.86 1.1 33.9 49 -8.6 16.5
11:00 1013 29.91 842 24.86 1.1 33.9 47 -9 15.8
11:05 1013 29.91 842 24.86 1.1 34 48 -8.7 16.4
11:10 1013 29.91 842 24.86 1.3 34.3 47 -8.8 16.1
11:15 1013 29.91 842 24.86 1.4 34.5 47 -8.8 16.2
11:20 1013 29.91 842 24.86 1.4 34.5 51 -7.7 18.2
11:25 1013 29.91 842 24.86 1.2 34.2 51 -7.9 17.9
11:30 1013 29.91 842 24.86 1.9 35.4 44 -9.2 15.5
11:35 1013 29.91 842 24.86 2.3 36.2 45 -8.5 16.6
11:40 1013 29.91 842 24.86 2.5 36.4 45 -8.3 17.1
11:45 1013 29.91 842 24.86 2.5 36.4 45 -8.3 17
11:50 1013 29.91 842 24.86 3.1 37.5 40 -9.3 15.3
11:55 1013 29.91 842 24.86 2.1 35.8 46 -8.3 17
12:00 1013 29.91 842 24.86 2.2 36 44 -8.7 16.3
12:05 1013 29.91 842 24.86 2.5 36.5 44 -8.7 16.4
12:10 1013 29.91 842 24.86 2.2 36 43 -9.1 15.6
12:15 1013 29.91 842 24.86 2.2 35.9 45 -8.6 16.5
12:20 1013 29.91 842 24.86 2.2 36 50 -7.3 18.9
12:25 1013 29.91 842 24.86 2.2 36 50 -7.3 18.9
12:30 1013 29.91 842 24.86 2.1 35.8 47 -7.9 17.7
12:35 1013 29.91 842 24.86 2.3 36.2 49 -7.4 18.7
12:40 1013 29.91 842 24.86 2.2 35.9 49 -7.3 18.8
12:45 1013 29.91 842 24.86 2.3 36.1 49 -7.3 18.9
12:50 1013 29.91 842 24.86 2.5 36.4 47 -7.7 18.1
12:55 1013 29.91 842 24.86 2.4 36.3 48 -7.6 18.3
13:00 1013 29.91 842 24.86 2.2 36 48 -7.7 18.1
13:05 1013 29.91 842 24.86 1.6 34.9 50 -7.7 18.1
13:10 1013 29.91 842 24.86 1.5 34.8 50 -7.8 18
13:15 1013 29.91 842 24.86 0.4 32.8 53 -8.1 17.4
13:20 1013 29.91 842 24.86 0.1 32.1 53 -8.3 17
13:25 1013 29.91 842 24.86 0.6 33.1 54 -7.7 18.1
13:30 1013 29.91 842 24.86 1.3 34.4 51 -7.8 17.9
13:35 1013 29.91 842 24.86 0.8 33.4 54 -7.6 18.4
13:40 1012 29.88 842 24.86 0.7 33.3 51 -8.4 16.9
13:45 1012 29.88 842 24.86 0.7 33.3 50 -8.4 16.8
13:50 1012 29.88 842 24.86 1 33.7 50 -8.4 17
13:55 1012 29.88 842 24.86 1.5 34.7 49 -8.2 17.3
14:00 1012 29.88 842 24.86 1.8 35.2 47 -8.3 17.1
14:05 1012 29.88 842 24.86 2.4 36.3 45 -8.3 17
14:10 1012 29.88 842 24.86 2.8 37.1 46 -7.6 18.4
14:15 1012 29.88 842 24.86 2.9 37.2 47 -7.4 18.7
14:20 1012 29.88 842 24.86 2.6 36.7 47 -7.7 18.2
14:25 1012 29.88 842 24.86 1.9 35.4 50 -7.5 18.6
14:30 1012 29.88 842 24.86 1.2 34.1 51 -7.9 17.8
14:35 1012 29.88 842 24.86 1 33.7 49 -8.5 16.6
14:40 1013 29.91 842 24.86 1.3 34.3 47 -8.8 16.2
14:45 1013 29.91 842 24.86 1.7 35 47 -8.5 16.7
14:50 1012 29.88 842 24.86 1.9 35.4 46 -8.6 16.5
14:55 1012 29.88 842 24.86 2.2 35.9 43 -9.2 15.4
15:00 1013 29.91 842 24.86 3.7 38.6 42 -8.1 17.4
15:05 1013 29.91 842 24.86 4 39.2 42 -7.6 18.3
15:10 1013 29.91 842 24.86 3.6 38.5 44 -7.5 18.6
15:15 1013 29.91 842 24.86 3.5 38.3 45 -7.4 18.7
15:20 1013 29.91 842 24.86 3.5 38.4 44 -7.6 18.4
15:25 1013 29.91 842 24.86 3.7 38.6 44 -7.5 18.5
15:30 1013 29.91 842 24.86 3.7 38.6 46 -7 19.3
15:35 1013 29.91 842 24.86 3.5 38.2 44 -7.6 18.2
15:40 1013 29.91 842 24.86 2.6 36.6 47 -7.6 18.3
15:45 1013 29.91 842 24.86 2 35.6 47 -8 17.5
15:50 1013 29.91 842 24.86 2.3 36.2 44 -8.6 16.6
15:55 1013 29.91 842 24.86 1.8 35.3 47 -8.4 16.8
16:00 1013 29.91 842 24.86 1.8 35.2 47 -8.4 16.8
16:05 1013 29.91 842 24.86 1.6 34.9 48 -8.4 16.9
16:10 1013 29.91 842 24.86 2.2 35.9 45 -8.6 16.6
16:15 1013 29.91 842 24.86 2.3 36.1 46 -8.3 17.1
16:20 1013 29.91 842 24.86 2.3 36.1 46 -8.1 17.4
16:25 1013 29.91 842 24.86 2.4 36.4 45 -8.2 17.2
16:30 1013 29.91 842 24.86 2.4 36.3 47 -7.8 17.9
16:35 1013 29.91 842 24.86 2.1 35.8 47 -8.1 17.5
16:40 1013 29.91 842 24.86 1.6 34.9 50 -7.7 18.2
16:45 1012 29.88 842 24.86 1.4 34.4 50 -7.9 17.8
16:50 1013 29.91 842 24.86 1.2 34.2 50 -8 17.7
16:55 1013 29.91 842 24.86 0.8 33.4 52 -7.9 17.9
17:00 1013 29.91 842 24.86 0.9 33.6 51 -8.2 17.3
17:05 1013 29.91 842 24.86 1.1 33.9 51 -8 17.6
17:10 1013 29.91 842 24.86 1.2 34.2 52 -7.7 18.2
17:15 1013 29.91 842 24.86 1.2 34.2 53 -7.3 18.8
17:20 1013 29.91 842 24.86 1.3 34.3 50 -8.1 17.5
17:25 1013 29.91 842 24.86 0.9 33.5 51 -8.1 17.4
17:30 1013 29.91 842 24.86 0.1 32.1 54 -8.1 17.4
17:35 1013 29.91 842 24.86 -0.2 31.6 56 -7.9 17.8
17:40 1013 29.91 842 24.86 -0.3 31.5 56 -8.1 17.4
17:45 1013 29.91 842 24.86 -0.3 31.5 57 -7.8 18
17:50 1013 29.91 842 24.86 -0.3 31.5 57 -7.7 18.1
17:55 1013 29.91 842 24.86 -0 32 57 -7.5 18.5
18:00 1013 29.91 842 24.86 -0 32 59 -7 19.4
18:05 1013 29.91 842 24.86 -0.4 31.2 60 -7.3 18.9
18:10 1013 29.91 842 24.86 -0.7 30.8 61 -7.3 18.8
18:15 1013 29.91 842 24.86 -0.8 30.5 60 -7.6 18.3
18:20 1013 29.91 842 24.86 -0.6 31 59 -7.6 18.3
18:25 1013 29.91 842 24.86 -0.5 31.1 59 -7.6 18.3
18:30 1013 29.91 842 24.86 -0.6 30.9 61 -7.3 18.9
18:35 1013 29.91 842 24.86 -0.4 31.3 61 -7.1 19.3
18:40 1013 29.91 842 24.86 -0.2 31.6 60 -7.1 19.3
18:45 1013 29.91 842 24.86 -0.1 31.8 60 -7 19.3
18:50 1013 29.91 842 24.86 -0 32 59 -7.1 19.3
18:55 1013 29.91 842 24.86 -0.1 31.9 60 -6.9 19.6
19:00 1013 29.91 842 24.86 -0.2 31.7 62 -6.6 20.1
19:05 1013 29.91 842 24.86 -0.3 31.4 63 -6.4 20.4
19:10 1013 29.91 842 24.86 -0.6 31 61 -7.2 19
19:15 1013 29.91 842 24.86 -0.6 31 62 -7 19.4
19:20 1013 29.91 842 24.86 -0.6 30.9 64 -6.6 20.2
19:25 1013 29.91 842 24.86 -0.6 30.9 63 -6.8 19.8
19:30 1013 29.91 842 24.86 -0.7 30.7 64 -6.7 19.9
19:35 1013 29.91 842 24.86 -0.8 30.6 64 -6.8 19.8
19:40 1013 29.91 842 24.86 -0.8 30.6 63 -7 19.5
19:45 1013 29.91 842 24.86 -0.6 30.9 66 -6.3 20.7
19:50 1013 29.91 842 24.86 -0.8 30.6 65 -6.5 20.3
19:55 1013 29.91 842 24.86 -0.8 30.6 64 -6.8 19.8
20:00 1013 29.91 842 24.86 -0.8 30.6 63 -6.9 19.6
20:05 1013 29.91 842 24.86 -0.6 30.9 63 -6.7 19.9
20:10 1013 29.91 842 24.86 -0.5 31.1 63 -6.7 19.9
20:15 1013 29.91 842 24.86 -0.4 31.2 63 -6.7 19.9
20:20 1013 29.91 842 24.86 -0.4 31.4 63 -6.5 20.3
20:25 1013 29.91 842 24.86 -0.2 31.7 64 -6.2 20.8
20:30 1013 29.91 842 24.86 -0.1 31.8 62 -6.5 20.4
20:35 1013 29.91 842 24.86 -0.2 31.6 64 -6.1 21
20:40 1013 29.91 842 24.86 -0.3 31.4 65 -6.2 20.9
20:45 1013 29.91 842 24.86 -0.6 31 67 -6 21.2
20:50 1013 29.91 842 24.86 -0.7 30.7 68 -5.9 21.3
20:55 1013 29.91 842 24.86 -0.8 30.6 66 -6.5 20.4
21:00 1013 29.91 842 24.86 -0.5 31.1 67 -5.8 21.5
21:05 1013 29.91 842 24.86 -0.5 31 64 -6.5 20.3
21:10 1013 29.91 842 24.86 -0 31.9 57 -7.5 18.4
21:15 1013 29.91 842 24.86 0.4 32.7 63 -5.9 21.4
21:20 1013 29.91 842 24.86 -0 31.9 63 -6.2 20.9
21:25 1013 29.91 842 24.86 -0.1 31.8 62 -6.5 20.3
21:30 1013 29.91 842 24.86 -0.2 31.6 64 -6.2 20.8
21:35 1013 29.91 842 24.86 -0.6 31 66 -6.1 21
21:40 1013 29.91 842 24.86 -0.6 31 59 -7.6 18.4
21:45 1013 29.91 842 24.86 0.3 32.6 57 -7.2 19.1
21:50 1013 29.91 842 24.86 0.4 32.8 60 -6.4 20.5
21:55 1013 29.91 842 24.86 0.2 32.4 62 -6.3 20.7
22:00 1013 29.91 842 24.86 -0.2 31.7 63 -6.4 20.5
22:05 1013 29.91 842 24.86 -0.4 31.3 62 -6.8 19.7
22:10 1013 29.91 842 24.86 -0.1 31.9 61 -6.7 19.9
22:15 1013 29.91 842 24.86 -0.3 31.5 67 -5.7 21.7
22:20 1013 29.91 842 24.86 -0.6 30.8 66 -6.3 20.7
22:25 1013 29.91 842 24.86 -0.6 30.9 66 -6.2 20.9
22:30 1013 29.91 842 24.86 -0.7 30.7 67 -6.2 20.9
22:35 1013 29.91 842 24.86 -0.7 30.7 67 -6.1 21
22:40 1013 29.91 842 24.86 -0.5 31 63 -6.7 20
22:45 1013 29.91 842 24.86 -0.5 31.1 68 -5.7 21.7
22:50 1013 29.91 842 24.86 -0.5 31.2 64 -6.4 20.4
22:55 1013 29.91 842 24.86 -0.4 31.3 65 -6.3 20.7
23:00 1013 29.91 842 24.86 -0.5 31.1 64 -6.4 20.4
23:05 1013 29.91 842 24.86 -0.6 30.9 69 -5.7 21.8
23:10 1013 29.91 842 24.86 -0.7 30.7 68 -5.9 21.4
23:15 1013 29.91 842 24.86 -0.3 31.4 63 -6.6 20.1
23:20 1013 29.91 842 24.86 0 32 64 -6.1 21.1
23:25 1013 29.91 842 24.86 -0.3 31.5 69 -5.3 22.5
23:30 1013 29.91 842 24.86 -0.7 30.7 68 -5.9 21.4
23:35 1013 29.91 842 24.86 -0.8 30.6 68 -5.9 21.3
23:40 1013 29.91 842 24.86 -0.7 30.7 67 -6.2 20.9
23:45 1013 29.91 842 24.86 -0.7 30.7 67 -6.1 21.1
23:50 1013 29.91 842 24.86 -0.7 30.7 67 -6.1 21
23:55 1013 29.91 842 24.86 -0.7 30.7 67 -6.2 20.8
24:00 1013 29.91 842 24.86 -0.9 30.4 69 -5.8 21.6